Time;durP1;ratioP1;P1;durP2;ratioP2;P2;SDS_P1;SDS_P2;PMS_P1;PMS_P2;Temp;Humidity;BMP_temperature;BMP_pressure;BME280_temperature;BME280_humidity;BME280_pressure;Samples;Min_cycle;Max_cycle;Signal;HPM_P1;HPM_P2
2021/11/15 00:01:13;;;;;;;167.05;81.40;;;;;;;-0.48;75.87;102091.85;1783657;80;20920;-70
2021/11/15 00:03:43;;;;;;;161.85;82.33;;;;;;;-0.54;75.80;102101.23;1783468;80;21143;-70
2021/11/15 00:06:10;;;;;;;150.20;82.12;;;;;;;-0.56;75.87;102105.51;1783823;80;20840;-70
2021/11/15 00:08:38;;;;;;;149.00;78.40;;;;;;;-0.58;75.95;102109.78;1783368;80;20943;-70
2021/11/15 00:11:07;;;;;;;136.10;75.28;;;;;;;-0.59;75.88;102105.48;1783476;80;20964;-70
2021/11/15 00:13:34;;;;;;;122.35;65.08;;;;;;;-0.65;75.82;102101.13;1783889;80;21018;-70
2021/11/15 00:16:02;;;;;;;127.70;67.82;;;;;;;-0.70;75.97;102106.66;1783452;80;20896;-70
2021/11/15 00:18:31;;;;;;;137.28;70.85;;;;;;;-0.75;76.17;102101.47;1783829;80;20951;-71
2021/11/15 00:20:58;;;;;;;121.30;69.25;;;;;;;-0.80;76.35;102100.56;1783579;80;20904;-70
2021/11/15 00:23:26;;;;;;;141.65;70.60;;;;;;;-0.84;76.53;102102.66;1783515;80;20927;-70
2021/11/15 00:25:54;;;;;;;140.92;71.17;;;;;;;-0.91;76.76;102103.01;1783573;80;20967;-70
2021/11/15 00:28:20;;;;;;;141.50;72.27;;;;;;;-0.90;76.95;102101.30;1783769;80;21379;-69
2021/11/15 00:30:47;;;;;;;122.65;67.90;;;;;;;-0.90;77.21;102096.14;1783440;80;20896;-70
2021/11/15 00:33:16;;;;;;;131.45;65.75;;;;;;;-0.88;77.41;102099.17;1783471;80;20947;-71
2021/11/15 00:35:43;;;;;;;112.32;64.03;;;;;;;-0.85;77.59;102092.75;1783571;80;20912;-70
2021/11/15 00:38:11;;;;;;;110.42;60.03;;;;;;;-0.83;77.68;102082.48;1783520;80;21322;-71
2021/11/15 00:40:40;;;;;;;111.40;59.93;;;;;;;-0.81;77.93;102085.08;1776254;80;21255;-70
2021/11/15 00:43:07;;;;;;;96.80;56.75;;;;;;;-0.82;78.43;102085.52;1775271;80;21525;-70
2021/11/15 00:45:35;;;;;;;107.00;59.50;;;;;;;-0.74;78.82;102086.87;1775264;80;20979;-71
2021/11/15 00:48:03;;;;;;;93.07;54.98;;;;;;;-0.68;79.18;102091.66;1775186;80;20900;-70
2021/11/15 00:50:30;;;;;;;108.72;53.17;;;;;;;-0.61;79.58;102093.88;1775230;80;20885;-71
2021/11/15 00:52:57;;;;;;;83.80;50.80;;;;;;;-0.55;79.92;102090.51;1775159;80;21521;-70
2021/11/15 00:55:24;;;;;;;80.65;49.25;;;;;;;-0.52;80.04;102087.52;1775151;80;21465;-72
2021/11/15 00:57:51;;;;;;;70.95;46.83;;;;;;;-0.45;80.19;102096.16;1775292;80;20849;-72
2021/11/15 01:00:25;;;;;;;70.15;44.50;;;;;;;-0.40;80.24;102097.09;1775100;80;20897;-71
2021/11/15 01:02:53;;;;;;;80.65;47.00;;;;;;;-0.35;80.43;102095.41;1775683;80;21370;-70
2021/11/15 01:05:20;;;;;;;85.20;48.23;;;;;;;-0.28;80.80;102094.61;1775115;80;21102;-69
2021/11/15 01:07:46;;;;;;;116.93;48.60;;;;;;;-0.24;80.88;102084.77;1775573;80;20940;-70
2021/11/15 01:10:17;;;;;;;67.82;44.73;;;;;;;-0.17;81.16;102079.23;1775306;80;20920;-70
2021/11/15 01:12:44;;;;;;;62.70;42.70;;;;;;;-0.07;81.04;102072.02;1775041;80;20939;-71
2021/11/15 01:15:14;;;;;;;62.40;43.38;;;;;;;-0.05;80.88;102065.13;1775328;80;20876;-70
2021/11/15 01:17:41;;;;;;;82.47;49.08;;;;;;;-0.06;80.88;102069.87;1775480;80;21843;-71
2021/11/15 01:20:10;;;;;;;116.22;50.33;;;;;;;-0.08;80.96;102054.81;1775165;80;20889;-71
2021/11/15 01:22:38;;;;;;;87.67;51.28;;;;;;;-0.11;81.05;102058.67;1775479;80;20956;-72
2021/11/15 01:25:06;;;;;;;76.45;47.10;;;;;;;-0.12;81.07;102057.36;1775227;80;21009;-69
2021/11/15 01:27:33;;;;;;;67.80;44.20;;;;;;;-0.10;80.99;102052.64;1775444;80;20876;-70
2021/11/15 01:30:00;;;;;;;67.32;45.17;;;;;;;-0.09;80.94;102050.52;1775389;80;21460;-70
2021/11/15 01:32:27;;;;;;;69.65;47.20;;;;;;;-0.09;81.10;102053.09;1775521;80;20928;-70
2021/11/15 01:34:53;;;;;;;70.25;45.88;;;;;;;-0.04;81.27;102048.83;1775167;80;21484;-70
2021/11/15 01:37:21;;;;;;;99.62;49.63;;;;;;;0.02;81.44;102057.45;1775289;80;21382;-71
2021/11/15 01:39:48;;;;;;;106.67;49.63;;;;;;;0.09;81.56;102055.34;1778697;80;20848;-70
2021/11/15 01:42:15;;;;;;;73.78;45.58;;;;;;;0.16;81.52;102052.83;1783799;80;21112;-71
2021/11/15 01:44:42;;;;;;;72.10;44.77;;;;;;;0.21;81.29;102055.43;1783815;80;20921;-70
2021/11/15 01:47:09;;;;;;;69.07;45.05;;;;;;;0.22;81.06;102058.86;1783780;80;20932;-70
2021/11/15 01:49:36;;;;;;;62.50;42.85;;;;;;;0.23;81.09;102074.36;1730630;80;20983;-70
2021/11/15 01:54:08;;;;;;;80.40;48.00;;;;;;;0.31;81.23;102069.23;1871623;76;22362;-70
2021/11/15 01:56:36;;;;;;;114.67;51.28;;;;;;;0.26;81.11;102064.05;1827743;77;21350;-70
2021/11/15 01:59:04;;;;;;;91.05;52.85;;;;;;;0.23;81.03;102065.77;1827230;77;21495;-68
2021/11/15 02:01:33;;;;;;;80.05;49.40;;;;;;;0.22;80.93;102070.04;1818310;77;20879;-70
2021/11/15 02:04:00;;;;;;;81.53;50.15;;;;;;;0.20;80.93;102070.05;1818410;79;20920;-69
2021/11/15 02:06:27;;;;;;;70.97;47.67;;;;;;;0.22;80.97;102076.48;1818375;77;21029;-70
2021/11/15 02:08:54;;;;;;;88.05;50.45;;;;;;;0.22;81.03;102078.21;1818981;79;21434;-70
2021/11/15 02:11:21;;;;;;;112.32;55.17;;;;;;;0.24;81.18;102091.55;1818255;79;21119;-70
2021/11/15 02:13:48;;;;;;;95.85;51.90;;;;;;;0.27;81.22;102089.41;1818274;79;21053;-71
2021/11/15 02:16:15;;;;;;;77.32;50.08;;;;;;;0.29;81.13;102092.47;1818458;79;21414;-69
2021/11/15 02:18:42;;;;;;;80.92;52.20;;;;;;;0.32;80.90;102089.89;1818618;79;20923;-70
2021/11/15 02:21:09;;;;;;;80.05;50.30;;;;;;;0.30;80.80;102085.15;1818382;79;20955;-70
2021/11/15 02:23:39;;;;;;;78.17;50.67;;;;;;;0.29;80.82;102083.84;1818680;79;21090;-70
2021/11/15 02:26:07;;;;;;;102.20;52.40;;;;;;;0.27;80.91;102087.72;1818318;77;20864;-70
2021/11/15 02:28:37;;;;;;;75.12;49.15;;;;;;;0.27;80.99;102094.57;1818621;79;20975;-69
2021/11/15 02:31:04;;;;;;;77.30;48.15;;;;;;;0.25;80.88;102091.15;1818422;79;21436;-70
2021/11/15 02:33:32;;;;;;;88.07;54.50;;;;;;;0.24;80.75;102083.81;1818463;78;20947;-71
2021/11/15 02:35:59;;;;;;;81.15;52.05;;;;;;;0.20;80.71;102085.53;1818283;79;21809;-69
2021/11/15 02:38:26;;;;;;;81.10;52.83;;;;;;;0.17;80.85;102091.08;1818546;79;20860;-70
2021/11/15 02:40:54;;;;;;;96.00;55.90;;;;;;;0.17;81.01;102089.36;1818395;79;20916;-70
2021/11/15 02:43:21;;;;;;;109.10;55.20;;;;;;;0.21;81.25;102085.09;1818205;79;20926;-70
2021/11/15 02:45:48;;;;;;;112.20;55.38;;;;;;;0.24;81.38;102092.84;1818550;79;20864;-70
2021/11/15 02:48:22;;;;;;;86.97;52.05;;;;;;;0.30;81.45;102089.45;1818359;78;20813;-70
2021/11/15 02:50:50;;;;;;;82.62;51.77;;;;;;;0.36;81.31;102084.34;1818340;77;20844;-71
2021/11/15 02:53:16;;;;;;;76.80;48.40;;;;;;;0.40;81.25;102081.78;1818599;77;20891;-69
2021/11/15 02:55:44;;;;;;;84.22;49.10;;;;;;;0.45;81.28;102082.23;1818280;79;20900;-70
2021/11/15 02:58:12;;;;;;;114.37;52.67;;;;;;;0.45;81.34;102078.37;1818696;79;20931;-72
2021/11/15 03:00:46;;;;;;;144.62;55.83;;;;;;;0.46;81.48;102083.95;1818225;79;21117;-70
2021/11/15 03:03:13;;;;;;;90.83;52.10;;;;;;;0.45;81.33;102088.25;1817878;79;20982;-69
2021/11/15 03:05:45;;;;;;;75.52;46.83;;;;;;;0.47;81.18;102085.66;1817750;79;20923;-69
2021/11/15 03:08:11;;;;;;;67.75;40.38;;;;;;;0.47;81.19;102082.68;1817739;77;20904;-69
2021/11/15 03:10:40;;;;;;;67.12;44.33;;;;;;;0.46;81.30;102085.23;1818158;79;20899;-69
2021/11/15 03:13:08;;;;;;;75.47;44.25;;;;;;;0.47;81.43;102087.84;1817726;77;21111;-69
2021/11/15 03:15:41;;;;;;;113.85;46.85;;;;;;;0.49;81.51;102087.42;1817932;79;21374;-70
2021/11/15 03:18:14;;;;;;;129.63;46.98;;;;;;;0.50;81.58;102093.44;1817879;79;20911;-70
2021/11/15 03:20:44;;;;;;;84.00;45.35;;;;;;;0.51;81.52;102096.04;1817968;79;20947;-70
2021/11/15 03:23:23;;;;;;;67.55;41.40;;;;;;;0.52;81.29;102086.57;1817866;79;21377;-70
2021/11/15 03:25:49;;;;;;;56.00;37.65;;;;;;;0.54;81.20;102091.31;1818194;79;21888;-71
2021/11/15 03:28:20;;;;;;;63.80;44.13;;;;;;;0.53;81.23;102099.90;1817828;79;20864;-70
2021/11/15 03:30:50;;;;;;;78.52;42.73;;;;;;;0.55;81.38;102101.63;1818244;77;20868;-69
2021/11/15 03:33:17;;;;;;;116.60;45.08;;;;;;;0.57;81.43;102097.77;1817618;79;21405;-70
2021/11/15 03:35:44;;;;;;;114.80;46.08;;;;;;;0.59;81.40;102100.80;1817969;79;20967;-70
2021/11/15 03:38:11;;;;;;;69.00;41.75;;;;;;;0.59;81.25;102108.53;1817766;79;21119;-71
2021/11/15 03:40:38;;;;;;;70.40;42.93;;;;;;;0.60;81.05;102104.23;1817950;79;21453;-70
2021/11/15 03:43:05;;;;;;;55.43;37.78;;;;;;;0.58;80.83;102100.38;1817753;79;21006;-70
2021/11/15 03:45:32;;;;;;;62.00;40.85;;;;;;;0.56;80.76;102104.66;1817849;79;21381;-70
2021/11/15 03:47:59;;;;;;;71.50;44.85;;;;;;;0.54;80.83;102104.22;1817771;77;20872;-70
2021/11/15 03:50:27;;;;;;;84.07;39.63;;;;;;;0.52;80.92;102103.34;1818006;79;21758;-71
2021/11/15 03:52:55;;;;;;;81.82;41.80;;;;;;;0.49;80.79;102103.31;1820791;78;20852;-71
2021/11/15 03:55:22;;;;;;;65.45;42.98;;;;;;;0.43;80.61;102107.17;1832707;78;20879;-70
2021/11/15 03:57:49;;;;;;;72.10;45.55;;;;;;;0.44;80.53;102111.47;1832822;78;20927;-70
2021/11/15 04:00:20;;;;;;;76.82;46.77;;;;;;;0.41;80.47;102102.84;1832792;78;21368;-70
2021/11/15 04:02:50;;;;;;;68.47;43.30;;;;;;;0.39;80.51;102107.56;1832749;77;21123;-70
2021/11/15 04:05:26;;;;;;;77.05;44.77;;;;;;;0.38;80.63;102119.61;1832761;78;20840;-70
2021/11/15 04:07:49;;;;;;;115.52;48.25;;;;;;;0.36;80.35;102125.63;1831795;77;21431;-69
2021/11/15 04:10:24;;;;;;;80.87;47.65;;;;;;;0.35;80.63;102127.31;1832638;78;20950;-70
2021/11/15 04:12:50;;;;;;;;;;;;;;;0.37;80.71;102119.16;1835725;78;20989;-70
2021/11/15 04:15:17;;;;;;;63.85;38.63;;;;;;;0.41;80.78;102123.92;1832786;78;21111;-70
2021/11/15 04:17:45;;;;;;;73.28;42.55;;;;;;;0.43;80.76;102123.51;1832679;78;20998;-71
2021/11/15 04:20:15;;;;;;;78.12;46.08;;;;;;;0.43;80.71;102131.69;1832988;78;21510;-70
2021/11/15 04:22:42;;;;;;;95.80;45.55;;;;;;;0.45;81.10;102137.72;1833082;78;21380;-71
2021/11/15 04:25:09;;;;;;;106.47;47.78;;;;;;;0.50;81.20;102142.48;1832703;78;20970;-70
2021/11/15 04:27:37;;;;;;;66.62;42.35;;;;;;;0.54;81.15;102146.38;1832761;78;21155;-69
2021/11/15 04:30:06;;;;;;;73.05;41.73;;;;;;;0.57;80.97;102147.67;1832695;78;20958;-70
2021/11/15 04:32:33;;;;;;;72.08;44.53;;;;;;;0.60;80.78;102146.82;1833013;77;20903;-70
2021/11/15 04:35:01;;;;;;;74.27;45.55;;;;;;;0.57;80.66;102140.36;1832781;77;20942;-69
2021/11/15 04:37:28;;;;;;;79.92;46.92;;;;;;;0.52;80.67;102148.08;1833005;78;20852;-71
2021/11/15 04:39:57;;;;;;;103.72;46.98;;;;;;;0.51;80.84;102151.93;1832864;78;21117;-71
2021/11/15 04:42:23;;;;;;;80.07;45.23;;;;;;;0.51;80.90;102156.69;1833016;77;20919;-72
2021/11/15 04:44:50;;;;;;;72.12;46.00;;;;;;;0.50;80.90;102161.40;1832664;78;21479;-71
2021/11/15 04:47:19;;;;;;;68.25;43.68;;;;;;;0.53;80.89;102169.59;1833092;78;21345;-70
2021/11/15 04:49:46;;;;;;;66.72;43.63;;;;;;;0.55;80.89;102167.45;1832764;77;20836;-69
2021/11/15 04:52:13;;;;;;;71.00;42.70;;;;;;;0.55;80.90;102157.12;1832743;77;21527;-70
2021/11/15 04:54:40;;;;;;;83.78;46.37;;;;;;;0.56;81.08;102164.03;1820910;78;20860;-71
2021/11/15 04:57:08;;;;;;;100.35;48.08;;;;;;;0.56;81.19;102154.99;1817634;79;20923;-71
2021/11/15 04:59:35;;;;;;;76.37;47.05;;;;;;;0.57;81.18;102152.84;1817532;78;21525;-71
2021/11/15 05:02:03;;;;;;;63.45;39.98;;;;;;;0.58;81.09;102152.00;1817864;79;20888;-71
2021/11/15 05:04:30;;;;;;;71.90;46.55;;;;;;;0.61;80.99;102165.34;1817723;77;21118;-71
2021/11/15 05:06:56;;;;;;;80.47;48.83;;;;;;;0.59;80.96;102164.03;1817564;79;20840;-72
2021/11/15 05:09:24;;;;;;;78.35;46.85;;;;;;;0.63;81.07;102161.48;1818007;78;21342;-71
2021/11/15 05:11:50;;;;;;;83.97;45.17;;;;;;;0.64;81.21;102156.75;1817673;77;20992;-71
2021/11/15 05:14:17;;;;;;;100.82;46.33;;;;;;;0.65;81.28;102162.37;1817956;79;21306;-73
2021/11/15 05:16:44;;;;;;;81.87;45.48;;;;;;;0.67;81.22;102168.38;1817961;79;21101;-70
2021/11/15 05:19:13;;;;;;;67.82;43.08;;;;;;;0.71;81.10;102171.41;1817727;78;20923;-71
2021/11/15 05:21:40;;;;;;;63.55;40.28;;;;;;;0.73;80.95;102171.00;1817681;79;20907;-71
2021/11/15 05:24:07;;;;;;;70.83;44.23;;;;;;;0.76;80.85;102176.20;1817695;79;21333;-73
2021/11/15 05:26:34;;;;;;;73.10;39.88;;;;;;;0.78;80.94;102182.23;1817542;78;20966;-73
2021/11/15 05:29:01;;;;;;;87.72;44.03;;;;;;;0.80;80.92;102189.13;1817926;77;21460;-73
2021/11/15 05:31:30;;;;;;;68.72;40.90;;;;;;;0.84;80.81;102182.25;1817656;78;20861;-70
2021/11/15 05:33:57;;;;;;;58.87;39.20;;;;;;;0.82;80.51;102183.95;1817852;79;20828;-72
2021/11/15 05:36:23;;;;;;;59.05;39.98;;;;;;;0.83;80.36;102177.95;1817623;79;20869;-72
2021/11/15 05:38:50;;;;;;;55.03;36.05;;;;;;;0.81;80.22;102186.97;1817961;77;20872;-72
2021/11/15 05:41:17;;;;;;;55.63;37.70;;;;;;;0.81;80.23;102183.09;1817726;77;21483;-73
2021/11/15 05:43:44;;;;;;;77.67;41.58;;;;;;;0.80;80.27;102189.53;1817861;77;20908;-72
2021/11/15 05:46:11;;;;;;;93.82;44.42;;;;;;;0.81;80.37;102189.55;1817683;77;20884;-71
2021/11/15 05:48:38;;;;;;;90.47;43.00;;;;;;;0.82;80.30;102202.03;1817902;77;20928;-72
2021/11/15 05:51:05;;;;;;;72.80;43.38;;;;;;;0.81;80.16;102195.16;1817608;79;20919;-71
2021/11/15 05:53:35;;;;;;;69.17;41.25;;;;;;;0.84;80.03;102197.74;1817453;78;20919;-71
2021/11/15 05:56:01;;;;;;;69.95;38.00;;;;;;;0.87;80.00;102208.52;1751923;80;20962;-71
2021/11/15 05:58:28;;;;;;;79.55;41.23;;;;;;;0.87;79.81;102204.64;1781894;79;20926;-71
2021/11/15 06:00:56;;;;;;;78.12;42.00;;;;;;;0.87;79.97;102209.80;1782219;79;20879;-70
2021/11/15 06:03:23;;;;;;;77.17;41.73;;;;;;;0.87;80.02;102201.66;1782211;80;20915;-71
2021/11/15 06:05:51;;;;;;;83.47;48.98;;;;;;;0.91;80.05;102220.19;1762926;81;21887;-72
2021/11/15 06:08:17;;;;;;;88.30;54.20;;;;;;;0.97;80.00;102211.59;1762832;80;20903;-71
2021/11/15 06:10:44;;;;;;;89.50;58.25;;;;;;;1.02;79.56;102232.73;1762893;81;20947;-72
2021/11/15 06:13:11;;;;;;;94.28;54.70;;;;;;;0.99;79.44;102217.64;1762967;81;21033;-70
2021/11/15 06:15:38;;;;;;;88.07;48.33;;;;;;;1.03;79.66;102228.42;1763286;81;20927;-71
2021/11/15 06:18:05;;;;;;;91.85;47.58;;;;;;;1.08;79.95;102220.70;1762827;81;21062;-72
2021/11/15 06:20:33;;;;;;;98.12;48.95;;;;;;;1.13;79.81;102235.35;1762929;81;21448;-70
2021/11/15 06:23:00;;;;;;;119.77;54.58;;;;;;;1.16;79.80;102216.01;1762924;80;20915;-71
2021/11/15 06:25:27;;;;;;;75.55;45.52;;;;;;;1.20;79.64;102237.13;1762760;81;21460;-72
2021/11/15 06:27:54;;;;;;;81.67;48.45;;;;;;;1.23;79.21;102225.95;1762945;80;20954;-73
2021/11/15 06:30:21;;;;;;;81.35;49.88;;;;;;;1.23;79.11;102231.11;1763274;79;21082;-71
2021/11/15 06:32:48;;;;;;;101.60;57.30;;;;;;;1.26;79.32;102233.70;1762975;81;20938;-69
2021/11/15 06:35:15;;;;;;;99.67;53.15;;;;;;;1.31;79.62;102233.31;1763172;79;21392;-70
2021/11/15 06:37:43;;;;;;;81.00;43.55;;;;;;;1.36;79.51;102235.48;1762830;79;20951;-72
2021/11/15 06:40:13;;;;;;;66.10;38.73;;;;;;;1.42;79.45;102236.80;1762774;81;21033;-71
2021/11/15 06:42:40;;;;;;;57.75;35.65;;;;;;;1.46;79.23;102233.78;1763078;80;21169;-70
2021/11/15 06:45:09;;;;;;;52.78;33.25;;;;;;;1.50;79.10;102240.70;1763432;81;20950;-70
2021/11/15 06:47:36;;;;;;;60.48;37.53;;;;;;;1.55;78.86;102237.69;1763159;81;21392;-71
2021/11/15 06:50:05;;;;;;;144.97;84.75;;;;;;;1.58;78.75;102238.12;1763233;79;20943;-72
2021/11/15 06:52:33;;;;;;;121.33;73.75;;;;;;;1.59;78.74;102234.70;1763010;80;21488;-71
2021/11/15 06:55:00;;;;;;;87.27;43.05;;;;;;;1.61;78.80;102240.74;1762812;80;21763;-70
2021/11/15 06:57:28;;;;;;;84.75;42.20;;;;;;;1.66;78.64;102246.34;1763015;79;21044;-70
2021/11/15 06:59:57;;;;;;;74.80;40.52;;;;;;;1.68;78.31;102246.80;1763321;81;20946;-73
2021/11/15 07:02:24;;;;;;;64.92;39.30;;;;;;;1.71;78.39;102259.72;1763057;81;20970;-72
2021/11/15 07:04:51;;;;;;;66.00;38.75;;;;;;;1.75;78.30;102259.73;1763417;79;20994;-72
2021/11/15 07:07:18;;;;;;;73.17;39.48;;;;;;;1.78;78.40;102263.64;1763150;81;21091;-71
2021/11/15 07:09:49;;;;;;;83.92;43.02;;;;;;;1.83;78.44;102270.13;1763242;80;20924;-71
2021/11/15 07:12:16;;;;;;;82.17;45.28;;;;;;;1.89;78.53;102265.38;1763310;81;21022;-74
2021/11/15 07:14:43;;;;;;;94.40;41.77;;;;;;;1.96;78.48;102272.31;1763043;79;20907;-73
2021/11/15 07:17:10;;;;;;;81.22;45.40;;;;;;;2.01;78.19;102274.03;1763165;81;20880;-72
2021/11/15 07:19:39;;;;;;;97.82;50.95;;;;;;;2.02;77.84;102271.02;1763131;79;21142;-73
2021/11/15 07:22:09;;;;;;;79.58;46.35;;;;;;;2.08;78.28;102274.91;1763245;81;20879;-72
2021/11/15 07:24:36;;;;;;;65.97;42.50;;;;;;;2.23;78.43;102280.12;1763063;81;21047;-75
2021/11/15 07:27:03;;;;;;;54.08;33.25;;;;;;;2.37;78.70;102281.42;1763230;81;20975;-73
2021/11/15 07:29:31;;;;;;;50.83;31.20;;;;;;;2.49;78.49;102278.86;1762948;81;21444;-72
2021/11/15 07:31:58;;;;;;;61.05;34.03;;;;;;;2.60;78.22;102289.62;1763103;81;21462;-73
2021/11/15 07:34:27;;;;;;;55.83;33.88;;;;;;;2.64;77.74;102290.06;1763218;81;20904;-73
2021/11/15 07:36:54;;;;;;;59.75;38.23;;;;;;;2.64;77.68;102284.44;1763347;81;21010;-74
2021/11/15 07:39:21;;;;;;;55.08;34.18;;;;;;;2.68;77.66;102290.06;1762954;81;21013;-74
2021/11/15 07:41:49;;;;;;;59.18;34.65;;;;;;;2.71;77.41;102294.37;1763227;81;20872;-73
2021/11/15 07:44:16;;;;;;;48.00;32.67;;;;;;;2.69;77.34;102294.39;1763081;81;21158;-72
2021/11/15 07:46:42;;;;;;;43.40;29.72;;;;;;;2.70;77.52;102297.84;1763010;79;20943;-73
2021/11/15 07:49:09;;;;;;;48.83;31.02;;;;;;;2.75;77.75;102292.66;1763411;80;20907;-74
2021/11/15 07:51:36;;;;;;;49.00;33.73;;;;;;;2.79;77.67;102300.86;1763203;80;20927;-73
2021/11/15 07:54:03;;;;;;;54.30;33.30;;;;;;;2.85;77.89;102295.24;1763335;81;21123;-73
2021/11/15 07:56:29;;;;;;;51.73;32.00;;;;;;;2.97;77.93;102298.69;1767136;81;21102;-76
2021/11/15 07:58:56;;;;;;;54.75;36.90;;;;;;;3.07;77.75;102301.70;1766945;81;20918;-78
2021/11/15 08:01:23;;;;;;;57.08;37.83;;;;;;;3.17;77.51;102299.95;1767085;81;20990;-73
2021/11/15 08:03:50;;;;;;;61.85;43.35;;;;;;;3.27;77.23;102302.52;1766800;81;20871;-73
2021/11/15 08:06:17;;;;;;;58.55;38.50;;;;;;;3.35;77.00;102304.22;1767231;81;20931;-74
2021/11/15 08:08:47;;;;;;;44.05;30.57;;;;;;;3.42;76.83;102309.81;1766794;81;21122;-74
2021/11/15 08:11:13;;;;;;;56.60;37.55;;;;;;;3.51;76.76;102309.78;1766732;81;21432;-75
2021/11/15 08:13:40;;;;;;;55.63;39.55;;;;;;;3.62;76.60;102309.74;1766807;81;20884;-75
2021/11/15 08:16:07;;;;;;;54.25;37.38;;;;;;;3.74;76.58;102311.86;1766775;81;20958;-75
2021/11/15 08:18:38;;;;;;;52.25;39.30;;;;;;;3.86;76.28;102316.56;1741394;81;20911;-74
2021/11/15 08:21:11;;;;;;;53.13;37.00;;;;;;;3.98;76.07;102307.84;1766951;81;21918;-74
2021/11/15 08:23:34;;;;;;;54.23;36.05;;;;;;;4.10;75.79;102309.95;1766157;81;20931;-75
2021/11/15 08:26:28;;;;;;;55.92;35.58;;;;;;;4.22;75.28;102302.51;1766888;81;21610;-72
2021/11/15 08:29:03;;;;;;;47.00;31.93;;;;;;;4.34;75.00;102306.78;1767285;81;20990;-72
2021/11/15 08:31:31;;;;;;;42.70;29.80;;;;;;;4.48;74.97;102311.87;1766950;81;21475;-72
2021/11/15 08:33:57;;;;;;;48.42;30.90;;;;;;;4.62;74.78;102313.91;1741235;81;21158;-73
2021/11/15 08:36:25;;;;;;;42.88;28.17;;;;;;;4.73;74.50;102309.48;1766632;81;20902;-73
2021/11/15 08:39:08;;;;;;;40.73;26.52;;;;;;;4.90;74.09;102309.35;1767111;81;21021;-73
2021/11/15 08:41:38;;;;;;;36.20;25.25;;;;;;;4.98;73.88;102306.70;1766681;81;20982;-72
2021/11/15 08:44:08;;;;;;;37.25;28.35;;;;;;;5.04;72.85;102306.61;1767137;81;20976;-74
2021/11/15 08:46:35;;;;;;;35.98;26.50;;;;;;;5.07;72.51;102304.42;1766780;81;21140;-73
2021/11/15 08:49:06;;;;;;;40.60;27.73;;;;;;;5.06;72.20;102303.56;1766664;81;20915;-73
2021/11/15 08:51:35;;;;;;;41.98;25.55;;;;;;;5.02;71.78;102300.56;1766140;81;20994;-73
2021/11/15 08:54:03;;;;;;;38.08;24.75;;;;;;;4.88;71.75;102298.11;1766902;81;20990;-73
2021/11/15 08:56:31;;;;;;;36.83;24.27;;;;;;;4.81;71.81;102296.45;1763935;80;20938;-73
2021/11/15 08:58:58;;;;;;;36.93;24.15;;;;;;;4.75;71.93;102293.45;1790775;78;21109;-71
2021/11/15 09:01:25;;;;;;;32.75;23.47;;;;;;;4.71;72.17;102289.59;1790299;80;20934;-73
2021/11/15 09:03:53;;;;;;;40.38;24.30;;;;;;;4.72;72.60;102294.78;1790452;78;20934;-72
2021/11/15 09:06:20;;;;;;;34.70;20.65;;;;;;;4.75;72.76;102289.55;1790576;78;21472;-74
2021/11/15 09:08:50;;;;;;;32.38;22.22;;;;;;;4.76;72.64;102295.19;1763818;81;20943;-71
2021/11/15 09:11:17;;;;;;;30.57;20.68;;;;;;;4.75;72.65;102297.34;1790402;79;21989;-73
2021/11/15 09:13:45;;;;;;;33.65;21.35;;;;;;;4.78;72.70;102305.14;1790358;79;20890;-73
2021/11/15 09:16:15;;;;;;;30.72;20.50;;;;;;;4.80;72.73;102301.64;1763949;80;21085;-73
2021/11/15 09:18:42;;;;;;;28.87;19.23;;;;;;;4.82;72.41;102297.30;1790408;78;21009;-73
2021/11/15 09:21:10;;;;;;;29.80;18.05;;;;;;;4.85;72.31;102299.89;1790708;78;21485;-72
2021/11/15 09:23:44;;;;;;;25.48;18.20;;;;;;;4.90;72.57;102296.80;1763690;81;22004;-73
2021/11/15 09:26:09;;;;;;;29.77;18.57;;;;;;;4.93;72.45;102298.91;1789663;78;20879;-73
2021/11/15 09:28:36;;;;;;;26.95;17.05;;;;;;;4.99;72.59;102287.61;1790346;78;20839;-72
2021/11/15 09:31:05;;;;;;;22.58;15.35;;;;;;;5.05;72.36;102297.10;1764251;81;20923;-73
2021/11/15 09:33:32;;;;;;;17.55;13.93;;;;;;;5.11;71.70;102294.00;1790418;79;20938;-72
2021/11/15 09:35:59;;;;;;;24.85;14.33;;;;;;;5.16;71.29;102297.85;1790569;79;21186;-72
2021/11/15 09:38:27;;;;;;;22.58;14.18;;;;;;;5.19;70.85;102296.51;1763792;81;20926;-72
2021/11/15 09:40:57;;;;;;;20.05;13.58;;;;;;;5.24;70.41;102292.11;1790653;79;20962;-70
2021/11/15 09:43:33;;;;;;;18.98;14.13;;;;;;;5.29;70.36;102286.85;1763712;81;20942;-72
2021/11/15 09:45:56;;;;;;;21.77;13.35;;;;;;;5.34;70.15;102281.19;1789955;79;21439;-72
2021/11/15 09:48:22;;;;;;;16.37;12.37;;;;;;;5.39;69.86;102281.53;1709651;81;21095;-72
2021/11/15 09:50:50;;;;;;;22.10;12.95;;;;;;;5.44;69.55;102274.13;1763963;80;20938;-72
2021/11/15 09:53:17;;;;;;;20.68;12.30;;;;;;;5.48;69.39;102270.61;1790371;78;20914;-73
2021/11/15 09:55:44;;;;;;;20.27;13.30;;;;;;;5.55;69.28;102269.20;1794769;78;21438;-73
2021/11/15 09:58:11;;;;;;;16.15;12.28;;;;;;;5.59;68.46;102268.73;1795868;80;21017;-71
2021/11/15 10:00:40;;;;;;;25.90;15.08;;;;;;;5.63;67.97;102263.91;1796081;79;21502;-72
2021/11/15 10:03:06;;;;;;;17.32;13.13;;;;;;;5.68;67.67;102274.27;1795613;80;20898;-73
2021/11/15 10:05:34;;;;;;;14.33;11.22;;;;;;;5.75;66.87;102272.84;1795697;80;20934;-72
2021/11/15 10:08:09;;;;;;;15.32;12.90;;;;;;;5.97;66.62;102273.89;1795657;80;20883;-71
2021/11/15 10:10:55;;;;;;;23.40;12.53;;;;;;;6.38;65.77;102273.70;1771029;78;20958;-71
2021/11/15 10:13:27;;;;;;;13.90;11.88;;;;;;;6.85;64.32;102271.63;1794518;78;22149;-73
2021/11/15 10:16:09;;;;;;;14.93;11.88;;;;;;;7.40;63.40;102266.23;1795805;80;21475;-73
2021/11/15 10:18:54;;;;;;;18.82;12.30;;;;;;;7.91;62.25;102273.84;1796192;79;20922;-71
2021/11/15 10:21:29;;;;;;;17.45;12.90;;;;;;;8.42;60.64;102280.09;1796205;80;20987;-71
2021/11/15 10:24:18;;;;;;;17.42;12.70;;;;;;;8.64;58.35;102277.81;1796381;80;20978;-71
2021/11/15 10:26:52;;;;;;;17.95;12.20;;;;;;;8.69;57.26;102277.27;1795974;80;21403;-70
2021/11/15 10:29:33;;;;;;;17.02;12.33;;;;;;;8.71;56.32;102286.36;1795950;80;20895;-73
2021/11/15 10:32:12;;;;;;;14.68;11.88;;;;;;;8.80;56.51;102290.05;1795383;78;20938;-72
2021/11/15 10:34:45;;;;;;;19.45;12.20;;;;;;;9.01;56.11;102295.19;1795321;80;20911;-72
2021/11/15 10:37:19;;;;;;;18.48;12.68;;;;;;;9.22;54.90;102295.05;1795949;78;20879;-73
2021/11/15 10:39:56;;;;;;;16.40;12.82;;;;;;;9.41;54.57;102291.48;1795003;80;21064;-72
2021/11/15 10:42:34;;;;;;;16.00;11.95;;;;;;;9.62;53.34;102290.45;1795780;80;20974;-72
2021/11/15 10:45:14;;;;;;;17.65;13.00;;;;;;;9.80;53.17;102295.14;1796209;78;21021;-72
2021/11/15 10:47:54;;;;;;;17.25;12.55;;;;;;;10.12;52.68;102296.80;1795866;78;21456;-73
2021/11/15 10:50:30;;;;;;;16.30;11.88;;;;;;;10.32;51.93;102304.07;1795792;79;20977;-70
2021/11/15 10:53:03;;;;;;;15.43;11.88;;;;;;;10.35;51.61;102295.24;1795805;80;21149;-74
2021/11/15 10:55:34;;;;;;;20.02;13.83;;;;;;;10.32;51.71;102301.45;1795749;80;21492;-74
2021/11/15 10:58:10;;;;;;;21.85;13.38;;;;;;;10.36;51.02;102296.52;1795692;80;20977;-72
2021/11/15 11:00:40;;;;;;;19.90;12.25;;;;;;;10.25;50.83;102313.44;1796066;80;21392;-74
2021/11/15 11:03:17;;;;;;;16.70;12.50;;;;;;;9.99;50.80;102307.26;1795723;80;20970;-72
2021/11/15 11:05:46;;;;;;;13.53;11.57;;;;;;;9.63;51.21;102303.97;1795901;78;21111;-72
2021/11/15 11:08:29;;;;;;;16.80;12.20;;;;;;;9.28;52.13;102309.28;1795731;80;20935;-71
2021/11/15 11:11:12;;;;;;;17.55;12.88;;;;;;;9.07;52.80;102304.62;1795769;80;20954;-71
2021/11/15 11:13:57;;;;;;;;;;;;;;;8.85;53.55;102301.28;1798361;79;20938;-71
2021/11/15 11:16:47;;;;;;;15.95;13.43;;;;;;;8.74;53.90;102299.81;1795917;80;20126;-69
2021/11/15 11:22:06;;;;;;;21.02;14.70;;;;;;;8.21;55.36;102306.28;1795726;80;21022;-71
2021/11/15 11:24:58;;;;;;;20.60;13.88;;;;;;;7.91;56.08;102307.80;1791451;80;20953;-71
2021/11/15 11:26:56;;;;;;;24.35;16.07;;;;;;;7.60;56.92;102316.31;1779627;78;20958;-71